Cherskiy, Russia
Current Conditions -  °F | °C
As of 3:00 PM on Saturday 25 Oct 2014 (Local Time) from UHMM Reporting Station
Overcast Overcast  
Wind Chill: 14°   Ceiling: 20000
Heat Index: 14°   Visibility: 6mi
Dew Point:   Wind: 2mph
Humidity: 73%   Direction: 100°E
Pressure: 29.68"   Gusts: NA
Location:  68.75°N, 161.3°E
Report Text: UHMM 250400Z 10001MPS 9999 OVC200 M10/M14 Q1005 NOSIG RMKQFE739 88850545
Loading
Personal Weather Stations






























Interactive Weather Map
Tropical Storm Tracking
New forecast layout! Learn more

10-Day Weather Forecast

Advertisements
Track Severe Weather on mobile